CheckWX is a tool to help pilots better visualize weather data.  It is not intended as a substitute for an official pre-flight weather briefing.

17:22:58 UTC

LQMO METAR
Mostar International Airport
Mostar, Bosnia and Herzegovina
Current

23 mins ago

LQMO 161700Z 15008KT CAVOK 29/11 Q1010
Observed
Jul-16 @ 17:00 UTC
Wind
  • 150° at 8 KTS
Visibility
10,000+ meters
Flight Rules
VFR
Cloud Levels
  • Clear skies
Temperature
29°C / 84°F
Dewpoint
11°C / 52°F
Humidity
33%
Altimeter
29.82" Hg
Pressure
1009.92 hPa
Previous

1 hour ago

LQMO 161600Z 18009KT 150V210 9999 FEW055 31/09 Q1009
Observed
Jul-16 @ 16:00 UTC
Wind
  • 180° at 9 KTS
Visibility
10,000+ meters
Flight Rules
VFR
Cloud Levels
  • Few at 5,500' AGL
Temperature
31°C / 88°F
Dewpoint
C / 48°F
Humidity
25%
Altimeter
29.79" Hg
Pressure
1008.92 hPa
Previous

2 hours ago

LQMO 161500Z 18010KT 150V210 9999 FEW055 32/10 Q1009
Observed
Jul-16 @ 15:00 UTC
Wind
  • 180° at 10 KTS
Visibility
10,000+ meters
Flight Rules
VFR
Cloud Levels
  • Few at 5,500' AGL
Temperature
32°C / 90°F
Dewpoint
10°C / 50°F
Humidity
26%
Altimeter
29.79" Hg
Pressure
1008.92 hPa